Time,TemperatureF,DewpointF,PressureIn,WindDirection,WindDirectionDegrees,WindSpeedMPH,WindSpeedGustMPH,Humidity,HourlyPrecipIn,Conditions,Clouds,dailyrainin,SoftwareType,DateUTC
2013-02-28 00:04:00,31.9,29.1,29.78,North,5,5.0,8.0,89,-99.99,,,0.00,1-wire,2013-02-28 06:04:00,
2013-02-28 00:10:00,32.0,29.3,29.78,North,353,5.0,11.0,90,-99.99,,,0.00,1-wire,2013-02-28 06:10:00,
2013-02-28 00:15:00,32.0,29.3,29.78,North,353,3.0,6.0,89,-99.99,,,0.00,1-wire,2013-02-28 06:15:00,
2013-02-28 00:20:00,31.8,29.0,29.78,North,353,6.0,11.0,89,-99.99,,,0.00,1-wire,2013-02-28 06:20:00,
2013-02-28 00:25:00,31.8,29.0,29.78,North,359,6.0,13.0,89,-99.99,,,0.00,1-wire,2013-02-28 06:25:00,
2013-02-28 00:30:00,31.9,29.2,29.79,North,359,5.0,8.0,90,-99.99,,,0.00,1-wire,2013-02-28 06:30:00,
2013-02-28 00:36:00,31.7,29.1,29.79,North,353,7.0,11.0,90,-99.99,,,0.00,1-wire,2013-02-28 06:36:00,
2013-02-28 00:41:00,31.8,29.1,29.79,North,353,2.0,6.0,90,-99.99,,,0.00,1-wire,2013-02-28 06:41:00,
2013-02-28 00:47:00,31.9,29.3,29.79,North,353,4.0,6.0,90,-99.99,,,0.00,1-wire,2013-02-28 06:47:00,
2013-02-28 00:52:00,31.7,29.1,29.79,North,351,6.0,11.0,90,-99.99,,,0.00,1-wire,2013-02-28 06:52:00,
2013-02-28 00:58:00,32.0,29.3,29.79,North,351,4.0,8.0,90,-99.99,,,0.00,1-wire,2013-02-28 06:58:00,
2013-02-28 01:04:00,31.9,29.0,29.79,North,351,5.0,10.0,89,-99.99,,,0.00,1-wire,2013-02-28 07:04:00,
2013-02-28 01:09:00,31.8,28.9,29.79,North,349,5.0,9.0,89,-99.99,,,0.00,1-wire,2013-02-28 07:09:00,
2013-02-28 01:15:00,31.8,28.8,29.79,North,349,8.0,13.0,88,-99.99,,,0.00,1-wire,2013-02-28 07:15:00,
2013-02-28 01:20:00,31.9,28.8,29.79,North,349,5.0,13.0,88,-99.99,,,0.00,1-wire,2013-02-28 07:20:00,
2013-02-28 01:25:00,31.8,28.5,29.79,NNW,342,6.0,13.0,88,-99.99,,,0.00,1-wire,2013-02-28 07:25:00,
2013-02-28 01:30:00,31.7,28.5,29.79,NNW,342,4.0,8.0,88,-99.99,,,0.00,1-wire,2013-02-28 07:30:00,
2013-02-28 01:35:00,31.6,28.4,29.79,NNW,342,8.0,14.0,88,-99.99,,,0.00,1-wire,2013-02-28 07:35:00,
2013-02-28 01:40:00,31.4,28.2,29.80,NNW,347,8.0,17.0,88,-99.99,,,0.00,1-wire,2013-02-28 07:40:00,
2013-02-28 01:45:00,31.5,28.2,29.79,NNW,347,5.0,9.0,87,-99.99,,,0.00,1-wire,2013-02-28 07:45:00,
2013-02-28 01:51:00,31.5,28.3,29.79,NNW,348,5.0,8.0,88,-99.99,,,0.00,1-wire,2013-02-28 07:51:00,
2013-02-28 01:57:00,31.5,28.2,29.80,NNW,348,4.0,9.0,87,-99.99,,,0.00,1-wire,2013-02-28 07:57:00,
2013-02-28 02:02:00,31.3,28.0,29.80,NNW,348,7.0,11.0,87,-99.99,,,0.00,1-wire,2013-02-28 08:02:00,
2013-02-28 02:07:00,31.3,27.9,29.80,NNW,348,8.0,16.0,87,-99.99,,,0.00,1-wire,2013-02-28 08:07:00,
2013-02-28 02:12:00,31.4,28.1,29.80,NNW,348,3.0,6.0,87,-99.99,,,0.00,1-wire,2013-02-28 08:12:00,
2013-02-28 02:17:00,31.4,27.9,29.80,NNW,348,6.0,14.0,87,-99.99,,,0.00,1-wire,2013-02-28 08:17:00,
2013-02-28 02:22:00,31.3,27.7,29.80,North,354,6.0,13.0,86,-99.99,,,0.00,1-wire,2013-02-28 08:22:00,
2013-02-28 02:27:00,31.3,27.7,29.81,North,354,7.0,11.0,86,-99.99,,,0.00,1-wire,2013-02-28 08:27:00,
2013-02-28 02:32:00,31.3,27.7,29.81,North,354,6.0,14.0,86,-99.99,,,0.00,1-wire,2013-02-28 08:32:00,
2013-02-28 02:37:00,31.4,27.8,29.82,North,357,7.0,11.0,86,-99.99,,,0.00,1-wire,2013-02-28 08:37:00,
2013-02-28 02:42:00,31.5,27.8,29.82,North,357,3.0,6.0,86,-99.99,,,0.00,1-wire,2013-02-28 08:42:00,
2013-02-28 02:47:00,31.5,27.9,29.82,North,357,4.0,10.0,86,-99.99,,,0.00,1-wire,2013-02-28 08:47:00,
2013-02-28 02:52:00,31.3,27.7,29.82,NNW,343,7.0,11.0,86,-99.99,,,0.00,1-wire,2013-02-28 08:52:00,
2013-02-28 02:57:00,31.3,27.6,29.82,NNW,343,5.0,8.0,86,-99.99,,,0.00,1-wire,2013-02-28 08:57:00,
2013-02-28 03:02:00,31.4,27.8,29.82,NNW,343,6.0,11.0,86,-99.99,,,0.00,1-wire,2013-02-28 09:02:00,
2013-02-28 03:07:00,31.4,27.8,29.82,North,0,2.0,3.0,86,-99.99,,,0.00,1-wire,2013-02-28 09:07:00,
2013-02-28 03:12:00,31.4,27.9,29.82,North,0,2.0,6.0,87,-99.99,,,0.00,1-wire,2013-02-28 09:12:00,
2013-02-28 03:17:00,31.3,27.7,29.82,North,0,5.0,8.0,86,-99.99,,,0.00,1-wire,2013-02-28 09:17:00,
2013-02-28 03:22:00,31.6,27.7,29.82,North,2,3.0,8.0,86,-99.99,,,0.00,1-wire,2013-02-28 09:22:00,
2013-02-28 03:27:00,31.5,27.7,29.82,North,2,2.0,6.0,86,-99.99,,,0.00,1-wire,2013-02-28 09:27:00,
2013-02-28 03:33:00,31.5,27.5,29.82,North,2,2.0,6.0,85,-99.99,,,0.00,1-wire,2013-02-28 09:33:00,
2013-02-28 03:38:00,31.6,27.4,29.82,North,1,3.0,6.0,84,-99.99,,,0.00,1-wire,2013-02-28 09:38:00,
2013-02-28 03:44:00,31.7,27.6,29.83,North,1,4.0,8.0,85,-99.99,,,0.00,1-wire,2013-02-28 09:44:00,
2013-02-28 03:50:00,31.7,27.4,29.83,North,1,4.0,9.0,84,-99.99,,,0.00,1-wire,2013-02-28 09:50:00,
2013-02-28 03:55:00,31.7,27.4,29.83,North,2,2.0,5.0,84,-99.99,,,0.00,1-wire,2013-02-28 09:55:00,
2013-02-28 04:00:00,31.6,27.1,29.84,North,2,3.0,6.0,83,-99.99,,,0.00,1-wire,2013-02-28 10:00:00,
2013-02-28 04:05:00,31.7,27.2,29.84,North,2,4.0,6.0,83,-99.99,,,0.00,1-wire,2013-02-28 10:05:00,
2013-02-28 04:10:00,31.8,27.1,29.84,North,353,2.0,6.0,83,-99.99,,,0.00,1-wire,2013-02-28 10:10:00,
2013-02-28 04:15:00,31.7,26.9,29.84,North,353,5.0,8.0,82,-99.99,,,0.00,1-wire,2013-02-28 10:15:00,
2013-02-28 04:20:00,31.7,26.7,29.84,North,353,5.0,9.0,82,-99.99,,,0.00,1-wire,2013-02-28 10:20:00,
2013-02-28 04:26:00,31.7,26.8,29.84,NNW,347,3.0,6.0,82,-99.99,,,0.00,1-wire,2013-02-28 10:26:00,
2013-02-28 04:31:00,31.7,26.7,29.84,NNW,347,5.0,8.0,82,-99.99,,,0.00,1-wire,2013-02-28 10:31:00,
2013-02-28 04:37:00,31.7,26.8,29.85,North,350,3.0,6.0,82,-99.99,,,0.00,1-wire,2013-02-28 10:37:00,
2013-02-28 04:42:00,31.6,26.8,29.85,North,350,3.0,6.0,83,-99.99,,,0.00,1-wire,2013-02-28 10:42:00,
2013-02-28 04:48:00,31.4,26.5,29.85,North,350,6.0,11.0,82,-99.99,,,0.00,1-wire,2013-02-28 10:48:00,
2013-02-28 04:53:00,31.4,26.5,29.86,North,353,3.0,6.0,82,-99.99,,,0.00,1-wire,2013-02-28 10:53:00,
2013-02-28 04:58:00,31.4,26.4,29.86,North,353,5.0,10.0,82,-99.99,,,0.00,1-wire,2013-02-28 10:58:00,
2013-02-28 05:04:00,31.5,26.6,29.86,North,353,3.0,8.0,82,-99.99,,,0.00,1-wire,2013-02-28 11:04:00,
2013-02-28 05:09:00,31.3,26.6,29.86,North,353,3.0,6.0,82,-99.99,,,0.00,1-wire,2013-02-28 11:09:00,
2013-02-28 05:15:00,31.2,26.4,29.86,North,353,5.0,8.0,82,-99.99,,,0.00,1-wire,2013-02-28 11:15:00,
2013-02-28 05:20:00,31.2,26.5,29.86,North,353,4.0,9.0,82,-99.99,,,0.00,1-wire,2013-02-28 11:20:00,
2013-02-28 05:25:00,31.2,26.5,29.86,NNW,341,5.0,8.0,82,-99.99,,,0.00,1-wire,2013-02-28 11:25:00,
2013-02-28 05:30:00,31.2,26.5,29.86,NNW,341,3.0,6.0,83,-99.99,,,0.00,1-wire,2013-02-28 11:30:00,
2013-02-28 05:35:00,31.2,26.6,29.87,NNW,341,5.0,9.0,83,-99.99,,,0.00,1-wire,2013-02-28 11:35:00,
2013-02-28 05:40:00,31.3,26.8,29.87,NNW,348,5.0,9.0,83,-99.99,,,0.00,1-wire,2013-02-28 11:40:00,
2013-02-28 05:45:00,31.3,26.9,29.87,NNW,348,2.0,6.0,84,-99.99,,,0.00,1-wire,2013-02-28 11:45:00,
2013-02-28 05:50:00,31.0,26.7,29.88,NNW,348,4.0,11.0,84,-99.99,,,0.00,1-wire,2013-02-28 11:50:00,
2013-02-28 05:56:00,31.0,26.9,29.88,NNW,345,5.0,8.0,84,-99.99,,,0.00,1-wire,2013-02-28 11:56:00,
2013-02-28 06:01:00,31.1,26.9,29.88,NNW,345,6.0,13.0,84,-99.99,,,0.00,1-wire,2013-02-28 12:01:00,
2013-02-28 06:06:00,30.9,26.8,29.88,NNW,339,5.0,11.0,84,-99.99,,,0.00,1-wire,2013-02-28 12:06:00,
2013-02-28 06:11:00,31.1,26.9,29.88,NNW,339,3.0,6.0,84,-99.99,,,0.00,1-wire,2013-02-28 12:11:00,
2013-02-28 06:16:00,31.1,26.9,29.88,NNW,339,4.0,6.0,84,-99.99,,,0.00,1-wire,2013-02-28 12:16:00,
2013-02-28 06:21:00,31.0,26.7,29.89,NNW,347,4.0,8.0,84,-99.99,,,0.00,1-wire,2013-02-28 12:21:00,
2013-02-28 06:26:00,31.1,26.8,29.89,NNW,347,6.0,13.0,84,-99.99,,,0.00,1-wire,2013-02-28 12:26:00,
2013-02-28 06:31:00,31.0,26.7,29.89,NNW,347,4.0,6.0,84,-99.99,,,0.00,1-wire,2013-02-28 12:31:00,
2013-02-28 06:36:00,31.1,26.6,29.90,NNW,339,6.0,13.0,83,-99.99,,,0.00,1-wire,2013-02-28 12:36:00,
2013-02-28 06:41:00,31.3,26.8,29.90,NNW,339,4.0,6.0,83,-99.99,,,0.00,1-wire,2013-02-28 12:41:00,
2013-02-28 06:46:00,31.4,27.0,29.90,NNW,339,3.0,6.0,84,-99.99,,,0.00,1-wire,2013-02-28 12:46:00,
2013-02-28 06:51:00,31.4,26.9,29.90,NNW,338,4.0,6.0,83,-99.99,,,0.00,1-wire,2013-02-28 12:51:00,
2013-02-28 06:56:00,31.2,26.6,29.90,NNW,338,3.0,6.0,83,-99.99,,,0.00,1-wire,2013-02-28 12:56:00,
2013-02-28 07:01:00,31.3,26.7,29.90,NNW,338,5.0,11.0,83,-99.99,,,0.00,1-wire,2013-02-28 13:01:00,
2013-02-28 07:06:00,31.3,26.6,29.90,NNW,341,4.0,6.0,82,-99.99,,,0.00,1-wire,2013-02-28 13:06:00,
2013-02-28 07:12:00,31.3,26.5,29.90,NNW,341,4.0,8.0,82,-99.99,,,0.00,1-wire,2013-02-28 13:12:00,
2013-02-28 07:18:00,31.3,26.5,29.91,NNW,341,3.0,6.0,82,-99.99,,,0.00,1-wire,2013-02-28 13:18:00,
2013-02-28 07:23:00,31.4,26.4,29.91,NNW,342,5.0,10.0,82,-99.99,,,0.00,1-wire,2013-02-28 13:23:00,
2013-02-28 07:28:00,31.5,26.5,29.92,NNW,342,3.0,8.0,82,-99.99,,,0.00,1-wire,2013-02-28 13:28:00,
2013-02-28 07:34:00,31.5,26.5,29.92,NNW,342,6.0,14.0,81,-99.99,,,0.00,1-wire,2013-02-28 13:34:00,
2013-02-28 07:39:00,31.4,26.6,29.92,NNW,338,3.0,6.0,82,-99.99,,,0.00,1-wire,2013-02-28 13:39:00,
2013-02-28 07:44:00,31.7,26.7,29.92,NNW,338,4.0,9.0,82,-99.99,,,0.00,1-wire,2013-02-28 13:44:00,
2013-02-28 07:50:00,31.6,26.7,29.92,NNW,338,5.0,9.0,82,-99.99,,,0.00,1-wire,2013-02-28 13:50:00,
2013-02-28 07:55:00,31.8,26.7,29.92,NNW,347,6.0,11.0,81,-99.99,,,0.00,1-wire,2013-02-28 13:55:00,
2013-02-28 08:00:00,31.6,26.5,29.93,NNW,347,4.0,8.0,81,-99.99,,,0.00,1-wire,2013-02-28 14:00:00,
2013-02-28 08:05:00,31.8,26.6,29.93,NNW,347,4.0,11.0,81,-99.99,,,0.00,1-wire,2013-02-28 14:05:00,
2013-02-28 08:11:00,31.8,26.4,29.93,NNW,348,5.0,9.0,80,-99.99,,,0.00,1-wire,2013-02-28 14:11:00,
2013-02-28 08:16:00,31.8,26.5,29.93,NNW,348,5.0,8.0,80,-99.99,,,0.00,1-wire,2013-02-28 14:16:00,
2013-02-28 08:21:00,31.7,26.4,29.93,NNW,337,8.0,14.0,80,-99.99,,,0.00,1-wire,2013-02-28 14:21:00,
2013-02-28 08:26:00,31.9,26.6,29.94,NNW,337,5.0,10.0,80,-99.99,,,0.00,1-wire,2013-02-28 14:26:00,
2013-02-28 08:31:00,31.8,26.5,29.94,NNW,337,8.0,14.0,80,-99.99,,,0.00,1-wire,2013-02-28 14:31:00,
2013-02-28 08:36:00,31.8,26.4,29.94,NNW,342,5.0,11.0,80,-99.99,,,0.00,1-wire,2013-02-28 14:36:00,
2013-02-28 08:41:00,31.8,26.3,29.94,NNW,342,4.0,9.0,80,-99.99,,,0.00,1-wire,2013-02-28 14:41:00,
2013-02-28 08:46:00,31.9,26.4,29.94,NNW,342,4.0,9.0,80,-99.99,,,0.00,1-wire,2013-02-28 14:46:00,
2013-02-28 08:51:00,32.1,26.5,29.94,NNW,342,4.0,8.0,80,-99.99,,,0.00,1-wire,2013-02-28 14:51:00,
2013-02-28 08:56:00,31.8,26.1,29.94,NNW,342,6.0,10.0,79,-99.99,,,0.00,1-wire,2013-02-28 14:56:00,
2013-02-28 09:01:00,32.0,26.2,29.94,NNW,342,4.0,8.0,79,-99.99,,,0.00,1-wire,2013-02-28 15:01:00,
2013-02-28 09:06:00,31.9,26.4,29.94,NNW,347,5.0,9.0,80,-99.99,,,0.00,1-wire,2013-02-28 15:06:00,
2013-02-28 09:11:00,32.0,26.1,29.94,NNW,347,7.0,16.0,78,-99.99,,,0.00,1-wire,2013-02-28 15:11:00,
2013-02-28 09:16:00,32.0,26.2,29.94,NNW,347,4.0,7.0,79,-99.99,,,0.00,1-wire,2013-02-28 15:16:00,
2013-02-28 09:22:00,32.1,26.1,29.94,NNW,343,4.0,8.0,78,-99.99,,,0.00,1-wire,2013-02-28 15:22:00,
2013-02-28 09:27:00,32.1,26.1,29.94,NNW,343,6.0,11.0,78,-99.99,,,0.00,1-wire,2013-02-28 15:27:00,
2013-02-28 09:32:00,32.1,26.0,29.95,NNW,343,5.0,9.0,78,-99.99,,,0.00,1-wire,2013-02-28 15:32:00,
2013-02-28 09:37:00,32.2,26.1,29.95,NNW,347,6.0,14.0,78,-99.99,,,0.00,1-wire,2013-02-28 15:37:00,
2013-02-28 09:42:00,32.2,26.3,29.95,NNW,347,4.0,6.0,78,-99.99,,,0.00,1-wire,2013-02-28 15:42:00,
2013-02-28 09:48:00,32.4,26.2,29.96,NNW,347,7.0,14.0,78,-99.99,,,0.00,1-wire,2013-02-28 15:48:00,
2013-02-28 09:54:00,32.5,26.0,29.96,NNW,343,7.0,11.0,77,-99.99,,,0.00,1-wire,2013-02-28 15:54:00,
2013-02-28 09:59:00,33.2,26.8,29.96,NNW,343,4.0,8.0,77,-99.99,,,0.00,1-wire,2013-02-28 15:59:00,
2013-02-28 10:05:00,33.4,26.7,29.96,NNW,343,3.0,6.0,76,-99.99,,,0.00,1-wire,2013-02-28 16:05:00,
2013-02-28 10:10:00,33.7,26.9,29.96,North,353,5.0,11.0,76,-99.99,,,0.00,1-wire,2013-02-28 16:10:00,
2013-02-28 10:16:00,33.4,26.1,29.97,North,353,7.0,16.0,74,-99.99,,,0.00,1-wire,2013-02-28 16:16:00,
2013-02-28 10:21:00,33.4,26.3,29.97,North,350,6.0,11.0,75,-99.99,,,0.00,1-wire,2013-02-28 16:21:00,
2013-02-28 10:26:00,33.1,25.6,29.97,North,350,8.0,16.0,74,-99.99,,,0.00,1-wire,2013-02-28 16:26:00,
2013-02-28 10:32:00,33.1,25.5,29.97,North,350,6.0,9.0,73,-99.99,,,0.00,1-wire,2013-02-28 16:32:00,
2013-02-28 10:37:00,33.3,25.7,29.97,NNW,346,4.0,8.0,73,-99.99,,,0.00,1-wire,2013-02-28 16:37:00,
2013-02-28 10:43:00,33.2,25.8,29.97,NNW,346,7.0,16.0,74,-99.99,,,0.00,1-wire,2013-02-28 16:43:00,
2013-02-28 10:48:00,33.4,25.8,29.97,NNW,346,3.0,9.0,73,-99.99,,,0.00,1-wire,2013-02-28 16:48:00,
2013-02-28 10:54:00,33.0,25.3,29.98,North,354,9.0,14.0,73,-99.99,,,0.00,1-wire,2013-02-28 16:54:00,
2013-02-28 10:59:00,33.1,25.5,29.98,North,354,6.0,11.0,73,-99.99,,,0.00,1-wire,2013-02-28 16:59:00,
2013-02-28 11:04:00,33.4,25.8,29.98,North,354,6.0,10.0,73,-99.99,,,0.00,1-wire,2013-02-28 17:04:00,
2013-02-28 11:10:00,33.1,25.4,29.98,North,358,5.0,8.0,73,-99.99,,,0.00,1-wire,2013-02-28 17:10:00,
2013-02-28 11:15:00,33.0,25.1,29.99,North,358,7.0,11.0,73,-99.99,,,0.00,1-wire,2013-02-28 17:15:00,
2013-02-28 11:20:00,32.9,25.0,29.99,North,358,4.0,8.0,72,-99.99,,,0.00,1-wire,2013-02-28 17:20:00,
2013-02-28 11:25:00,33.2,25.4,29.99,North,355,5.0,8.0,73,-99.99,,,0.00,1-wire,2013-02-28 17:25:00,
2013-02-28 11:30:00,33.3,25.2,29.99,North,355,5.0,9.0,72,-99.99,,,0.00,1-wire,2013-02-28 17:30:00,
2013-02-28 11:36:00,33.4,25.3,29.99,North,355,6.0,11.0,72,-99.99,,,0.00,1-wire,2013-02-28 17:36:00,
2013-02-28 11:41:00,33.7,25.4,29.99,North,355,3.0,6.0,71,-99.99,,,0.00,1-wire,2013-02-28 17:41:00,
2013-02-28 11:47:00,33.7,25.4,29.99,North,355,6.0,11.0,71,-99.99,,,0.00,1-wire,2013-02-28 17:47:00,
2013-02-28 11:52:00,33.9,25.3,29.99,North,360,6.0,10.0,70,-99.99,,,0.00,1-wire,2013-02-28 17:52:00,
2013-02-28 11:57:00,33.8,24.8,29.99,North,360,6.0,11.0,69,-99.99,,,0.00,1-wire,2013-02-28 17:57:00,
2013-02-28 12:02:00,33.7,24.6,29.99,North,360,7.0,14.0,69,-99.99,,,0.00,1-wire,2013-02-28 18:02:00,
2013-02-28 12:07:00,34.1,25.2,29.99,North,1,6.0,14.0,70,-99.99,,,0.00,1-wire,2013-02-28 18:07:00,
2013-02-28 12:12:00,33.4,24.4,29.99,North,1,7.0,14.0,69,-99.99,,,0.00,1-wire,2013-02-28 18:12:00,
2013-02-28 12:17:00,33.9,24.6,29.99,North,1,6.0,11.0,68,-99.99,,,0.00,1-wire,2013-02-28 18:17:00,
2013-02-28 12:22:00,34.1,24.8,29.99,North,5,5.0,10.0,68,-99.99,,,0.00,1-wire,2013-02-28 18:22:00,
2013-02-28 12:27:00,34.2,24.8,29.99,North,5,3.0,6.0,68,-99.99,,,0.00,1-wire,2013-02-28 18:27:00,
2013-02-28 12:32:00,33.9,24.1,29.99,North,5,6.0,16.0,67,-99.99,,,0.00,1-wire,2013-02-28 18:32:00,
2013-02-28 12:37:00,34.3,24.7,29.99,North,5,3.0,11.0,68,-99.99,,,0.00,1-wire,2013-02-28 18:37:00,
2013-02-28 12:42:00,34.1,24.6,29.99,North,5,5.0,11.0,68,-99.99,,,0.00,1-wire,2013-02-28 18:42:00,
2013-02-28 12:47:00,34.2,24.3,29.99,North,5,4.0,8.0,67,-99.99,,,0.00,1-wire,2013-02-28 18:47:00,
2013-02-28 12:52:00,34.4,24.6,29.99,NNE,13,6.0,11.0,67,-99.99,,,0.00,1-wire,2013-02-28 18:52:00,
2013-02-28 12:57:00,34.5,25.1,29.99,NNE,13,2.0,6.0,68,-99.99,,,0.00,1-wire,2013-02-28 18:57:00,
2013-02-28 13:02:00,34.3,24.2,29.99,NNE,13,7.0,11.0,66,-99.99,,,0.00,1-wire,2013-02-28 19:02:00,
2013-02-28 13:07:00,34.0,24.0,29.99,North,1,7.0,13.0,66,-99.99,,,0.00,1-wire,2013-02-28 19:07:00,
2013-02-28 13:12:00,33.8,24.1,29.99,North,1,8.0,14.0,67,-99.99,,,0.00,1-wire,2013-02-28 19:12:00,
2013-02-28 13:17:00,33.9,24.2,29.99,North,1,4.0,8.0,67,-99.99,,,0.00,1-wire,2013-02-28 19:17:00,
2013-02-28 13:23:00,33.8,23.8,29.99,NNE,13,5.0,11.0,67,-99.99,,,0.00,1-wire,2013-02-28 19:23:00,
2013-02-28 13:28:00,34.4,25.2,29.99,NNE,13,1.0,3.0,68,-99.99,,,0.00,1-wire,2013-02-28 19:28:00,
2013-02-28 13:34:00,34.5,24.7,29.99,NNE,13,2.0,5.0,67,-99.99,,,0.00,1-wire,2013-02-28 19:34:00,
2013-02-28 13:39:00,34.1,24.3,29.99,NNE,16,6.0,13.0,67,-99.99,,,0.00,1-wire,2013-02-28 19:39:00,
2013-02-28 13:45:00,33.7,23.5,29.99,NNE,16,5.0,8.0,66,-99.99,,,0.00,1-wire,2013-02-28 19:45:00,
2013-02-28 13:50:00,34.0,24.1,29.99,NNE,16,4.0,9.0,67,-99.99,,,0.00,1-wire,2013-02-28 19:50:00,
2013-02-28 13:55:00,33.7,23.8,29.99,NNE,16,4.0,8.0,67,-99.99,,,0.00,1-wire,2013-02-28 19:55:00,
2013-02-28 14:00:00,34.1,24.3,30.00,NNE,16,3.0,6.0,67,-99.99,,,0.00,1-wire,2013-02-28 20:00:00,
2013-02-28 14:05:00,34.0,23.9,29.99,NNE,16,4.0,6.0,66,-99.99,,,0.00,1-wire,2013-02-28 20:05:00,
2013-02-28 14:10:00,34.2,24.3,30.00,NNE,17,2.0,6.0,67,-99.99,,,0.00,1-wire,2013-02-28 20:10:00,
2013-02-28 14:15:00,34.3,24.1,30.00,NNE,17,5.0,9.0,66,-99.99,,,0.00,1-wire,2013-02-28 20:15:00,
2013-02-28 14:20:00,33.8,23.5,30.00,NNE,17,5.0,10.0,65,-99.99,,,0.00,1-wire,2013-02-28 20:20:00,
2013-02-28 14:25:00,34.1,23.9,30.00,North,10,5.0,11.0,66,-99.99,,,0.00,1-wire,2013-02-28 20:25:00,
2013-02-28 14:30:00,33.7,24.5,30.00,North,10,4.0,11.0,69,-99.99,,,0.00,1-wire,2013-02-28 20:30:00,
2013-02-28 14:35:00,33.5,24.8,30.01,North,10,4.0,6.0,70,-99.99,,,0.00,1-wire,2013-02-28 20:35:00,
2013-02-28 14:40:00,33.4,24.4,30.01,NNE,13,4.0,11.0,69,-99.99,,,0.00,1-wire,2013-02-28 20:40:00,
2013-02-28 14:46:00,33.9,25.3,30.01,NNE,13,4.0,8.0,71,-99.99,,,0.00,1-wire,2013-02-28 20:46:00,
2013-02-28 14:51:00,33.4,24.7,30.01,North,10,5.0,9.0,70,-99.99,,,0.00,1-wire,2013-02-28 20:51:00,
2013-02-28 14:56:00,33.5,24.8,30.01,North,10,6.0,10.0,70,-99.99,,,0.00,1-wire,2013-02-28 20:56:00,
2013-02-28 15:01:00,33.5,24.6,30.01,North,10,5.0,8.0,69,-99.99,,,0.00,1-wire,2013-02-28 21:01:00,
2013-02-28 15:06:00,33.5,24.7,30.01,North,7,4.0,9.0,70,-99.99,,,0.00,1-wire,2013-02-28 21:06:00,
2013-02-28 15:11:00,33.2,24.5,30.01,North,7,5.0,11.0,70,-99.99,,,0.00,1-wire,2013-02-28 21:11:00,
2013-02-28 15:16:00,33.0,24.2,30.01,North,7,6.0,9.0,70,-99.99,,,0.00,1-wire,2013-02-28 21:16:00,
2013-02-28 15:21:00,32.8,24.0,30.01,North,351,7.0,11.0,70,-99.99,,,0.00,1-wire,2013-02-28 21:21:00,
2013-02-28 15:26:00,32.8,24.0,30.01,North,351,5.0,11.0,70,-99.99,,,0.00,1-wire,2013-02-28 21:26:00,
2013-02-28 15:31:00,33.0,24.3,30.01,North,351,4.0,6.0,70,-99.99,,,0.00,1-wire,2013-02-28 21:31:00,
2013-02-28 15:36:00,32.8,24.2,30.01,North,351,5.0,8.0,70,-99.99,,,0.00,1-wire,2013-02-28 21:36:00,
2013-02-28 15:41:00,32.7,23.9,30.01,North,351,4.0,10.0,70,-99.99,,,0.00,1-wire,2013-02-28 21:41:00,
2013-02-28 15:46:00,32.7,24.0,30.01,North,351,4.0,9.0,70,-99.99,,,0.00,1-wire,2013-02-28 21:46:00,
2013-02-28 15:51:00,33.0,24.3,30.01,North,359,4.0,8.0,70,-99.99,,,0.00,1-wire,2013-02-28 21:51:00,
2013-02-28 15:56:00,32.7,24.0,30.02,North,359,5.0,8.0,70,-99.99,,,0.00,1-wire,2013-02-28 21:56:00,
2013-02-28 16:01:00,32.6,24.1,30.02,North,359,5.0,11.0,71,-99.99,,,0.00,1-wire,2013-02-28 22:01:00,
2013-02-28 16:06:00,32.6,24.2,30.02,North,356,3.0,6.0,71,-99.99,,,0.00,1-wire,2013-02-28 22:06:00,
2013-02-28 16:11:00,32.3,23.7,30.02,North,356,6.0,9.0,70,-99.99,,,0.00,1-wire,2013-02-28 22:11:00,
2013-02-28 16:16:00,32.2,23.6,30.03,North,356,5.0,11.0,70,-99.99,,,0.00,1-wire,2013-02-28 22:16:00,
2013-02-28 16:21:00,32.1,23.5,30.03,North,1,4.0,10.0,70,-99.99,,,0.00,1-wire,2013-02-28 22:21:00,
2013-02-28 16:26:00,32.0,23.5,30.03,North,1,6.0,13.0,70,-99.99,,,0.00,1-wire,2013-02-28 22:26:00,
2013-02-28 16:31:00,31.8,23.4,30.03,North,1,5.0,10.0,71,-99.99,,,0.00,1-wire,2013-02-28 22:31:00,
2013-02-28 16:37:00,31.5,23.5,30.03,North,7,5.0,8.0,72,-99.99,,,0.00,1-wire,2013-02-28 22:37:00,
2013-02-28 16:42:00,31.6,24.0,30.03,North,7,2.0,6.0,73,-99.99,,,0.00,1-wire,2013-02-28 22:42:00,
2013-02-28 16:48:00,31.3,23.5,30.03,North,7,3.0,6.0,73,-99.99,,,0.00,1-wire,2013-02-28 22:48:00,
2013-02-28 16:53:00,31.8,24.5,30.04,North,8,1.0,3.0,74,-99.99,,,0.00,1-wire,2013-02-28 22:53:00,
2013-02-28 16:59:00,31.5,23.9,30.04,North,8,0.0,3.0,73,-99.99,,,0.00,1-wire,2013-02-28 22:59:00,
2013-02-28 17:04:00,31.5,24.2,30.04,North,8,2.0,3.0,74,-99.99,,,0.00,1-wire,2013-02-28 23:04:00,
2013-02-28 17:10:00,31.2,23.8,30.04,North,10,3.0,9.0,73,-99.99,,,0.00,1-wire,2013-02-28 23:10:00,
2013-02-28 17:15:00,31.0,23.4,30.05,North,10,5.0,9.0,73,-99.99,,,0.00,1-wire,2013-02-28 23:15:00,
2013-02-28 17:21:00,31.5,24.2,30.05,North,7,0.0,3.0,74,-99.99,,,0.00,1-wire,2013-02-28 23:21:00,
2013-02-28 17:26:00,31.1,23.6,30.05,North,7,4.0,6.0,73,-99.99,,,0.00,1-wire,2013-02-28 23:26:00,
2013-02-28 17:32:00,31.5,24.3,30.05,North,7,1.0,3.0,74,-99.99,,,0.00,1-wire,2013-02-28 23:32:00,
2013-02-28 17:37:00,31.2,23.6,30.05,North,2,4.0,6.0,73,-99.99,,,0.00,1-wire,2013-02-28 23:37:00,
2013-02-28 17:42:00,31.1,23.6,30.05,North,2,1.0,3.0,73,-99.99,,,0.00,1-wire,2013-02-28 23:42:00,
2013-02-28 17:47:00,31.3,24.0,30.05,North,2,1.0,6.0,74,-99.99,,,0.00,1-wire,2013-02-28 23:47:00,
2013-02-28 17:52:00,30.8,23.2,30.05,North,10,5.0,8.0,73,-99.99,,,0.00,1-wire,2013-02-28 23:52:00,
2013-02-28 17:57:00,30.8,23.4,30.05,North,10,4.0,8.0,74,-99.99,,,0.00,1-wire,2013-02-28 23:57:00,
2013-02-28 18:02:00,30.8,23.7,30.05,North,10,4.0,8.0,74,-99.99,,,0.00,1-wire,2013-03-01 00:02:00,
2013-02-28 18:07:00,31.0,24.1,30.05,NNE,17,2.0,6.0,75,-99.99,,,0.00,1-wire,2013-03-01 00:07:00,
2013-02-28 18:12:00,30.4,23.4,30.06,NNE,17,2.0,6.0,75,-99.99,,,0.00,1-wire,2013-03-01 00:12:00,
2013-02-28 18:17:00,30.4,23.6,30.06,NNE,17,3.0,8.0,75,-99.99,,,0.00,1-wire,2013-03-01 00:17:00,
2013-02-28 18:22:00,30.4,23.5,30.06,North,9,2.0,3.0,75,-99.99,,,0.00,1-wire,2013-03-01 00:22:00,
2013-02-28 18:27:00,30.5,23.7,30.06,North,9,2.0,6.0,76,-99.99,,,0.00,1-wire,2013-03-01 00:27:00,
2013-02-28 18:32:00,30.4,23.5,30.07,North,9,3.0,6.0,75,-99.99,,,0.00,1-wire,2013-03-01 00:32:00,
2013-02-28 18:37:00,30.4,23.6,30.06,North,5,2.0,6.0,76,-99.99,,,0.00,1-wire,2013-03-01 00:37:00,
2013-02-28 18:42:00,30.6,23.8,30.07,North,5,0.0,0.0,75,-99.99,,,0.00,1-wire,2013-03-01 00:42:00,
2013-02-28 18:47:00,30.3,23.2,30.07,North,5,3.0,6.0,74,-99.99,,,0.00,1-wire,2013-03-01 00:47:00,
2013-02-28 18:52:00,30.5,23.5,30.07,North,10,1.0,3.0,75,-99.99,,,0.00,1-wire,2013-03-01 00:52:00,
2013-02-28 18:58:00,30.7,23.5,30.07,North,10,2.0,6.0,74,-99.99,,,0.00,1-wire,2013-03-01 00:58:00,
2013-02-28 19:03:00,30.9,23.6,30.07,North,10,2.0,6.0,74,-99.99,,,0.00,1-wire,2013-03-01 01:03:00,
2013-02-28 19:08:00,30.7,23.3,30.07,NNE,14,1.0,3.0,74,-99.99,,,0.00,1-wire,2013-03-01 01:08:00,
2013-02-28 19:13:00,30.5,23.1,30.07,NNE,14,2.0,8.0,74,-99.99,,,0.00,1-wire,2013-03-01 01:13:00,
2013-02-28 19:18:00,30.3,22.8,30.07,NNE,14,2.0,6.0,73,-99.99,,,0.00,1-wire,2013-03-01 01:18:00,
2013-02-28 19:24:00,30.6,23.1,30.07,NNE,14,0.0,3.0,73,-99.99,,,0.00,1-wire,2013-03-01 01:24:00,
2013-02-28 19:29:00,30.8,23.5,30.07,NNE,14,1.0,3.0,74,-99.99,,,0.00,1-wire,2013-03-01 01:29:00,
2013-02-28 19:35:00,30.5,23.4,30.07,NNE,14,2.0,6.0,75,-99.99,,,0.00,1-wire,2013-03-01 01:35:00,
2013-02-28 19:40:00,30.6,23.3,30.07,NNE,12,2.0,3.0,74,-99.99,,,0.00,1-wire,2013-03-01 01:40:00,
2013-02-28 19:45:00,30.3,22.9,30.08,NNE,12,1.0,3.0,74,-99.99,,,0.00,1-wire,2013-03-01 01:45:00,
2013-02-28 19:51:00,30.3,23.1,30.08,NNE,16,0.0,3.0,74,-99.99,,,0.00,1-wire,2013-03-01 01:51:00,
2013-02-28 19:56:00,30.5,23.4,30.08,NNE,16,2.0,3.0,75,-99.99,,,0.00,1-wire,2013-03-01 01:56:00,
2013-02-28 20:02:00,30.5,23.4,30.08,NNE,16,0.0,3.0,75,-99.99,,,0.00,1-wire,2013-03-01 02:02:00,
2013-02-28 20:07:00,30.3,23.1,30.08,NNE,22,0.0,3.0,74,-99.99,,,0.00,1-wire,2013-03-01 02:07:00,
2013-02-28 20:12:00,30.6,23.8,30.08,NNE,22,0.0,3.0,76,-99.99,,,0.00,1-wire,2013-03-01 02:12:00,
2013-02-28 20:17:00,30.1,23.4,30.09,NNE,22,2.0,3.0,76,-99.99,,,0.00,1-wire,2013-03-01 02:17:00,
2013-02-28 20:22:00,29.8,23.0,30.09,NE,35,3.0,8.0,75,-99.99,,,0.00,1-wire,2013-03-01 02:22:00,
2013-02-28 20:27:00,29.8,22.7,30.10,NE,35,0.0,3.0,75,-99.99,,,0.00,1-wire,2013-03-01 02:27:00,
2013-02-28 20:32:00,29.4,21.8,30.10,NE,35,2.0,3.0,73,-99.99,,,0.00,1-wire,2013-03-01 02:32:00,
2013-02-28 20:37:00,29.2,22.0,30.10,NNE,29,2.0,9.0,74,-99.99,,,0.00,1-wire,2013-03-01 02:37:00,
2013-02-28 20:42:00,29.0,21.4,30.10,NNE,29,1.0,3.0,73,-99.99,,,0.00,1-wire,2013-03-01 02:42:00,
2013-02-28 20:47:00,29.2,21.6,30.10,NNE,29,1.0,3.0,73,-99.99,,,0.00,1-wire,2013-03-01 02:47:00,
2013-02-28 20:52:00,29.2,21.7,30.10,NE,42,1.0,3.0,73,-99.99,,,0.00,1-wire,2013-03-01 02:52:00,
2013-02-28 20:57:00,29.2,21.9,30.10,NE,42,0.0,3.0,74,-99.99,,,0.00,1-wire,2013-03-01 02:57:00,
2013-02-28 21:02:00,29.2,22.2,30.10,NE,42,1.0,3.0,74,-99.99,,,0.00,1-wire,2013-03-01 03:02:00,
2013-02-28 21:07:00,29.1,22.5,30.10,ENE,59,2.0,6.0,76,-99.99,,,0.00,1-wire,2013-03-01 03:07:00,
2013-02-28 21:12:00,28.9,22.4,30.09,ENE,59,1.0,3.0,76,-99.99,,,0.00,1-wire,2013-03-01 03:12:00,
2013-02-28 21:17:00,28.5,21.9,30.10,ENE,59,1.0,3.0,76,-99.99,,,0.00,1-wire,2013-03-01 03:17:00,
2013-02-28 21:22:00,28.7,22.4,30.10,NE,56,2.0,6.0,77,-99.99,,,0.00,1-wire,2013-03-01 03:22:00,
2013-02-28 21:27:00,28.3,21.4,30.10,NE,56,2.0,3.0,75,-99.99,,,0.00,1-wire,2013-03-01 03:27:00,
2013-02-28 21:32:00,28.3,21.3,30.10,NE,56,1.0,3.0,75,-99.99,,,0.00,1-wire,2013-03-01 03:32:00,
2013-02-28 21:37:00,28.2,21.4,30.10,ENE,57,1.0,3.0,75,-99.99,,,0.00,1-wire,2013-03-01 03:37:00,
2013-02-28 21:42:00,27.9,21.1,30.10,ENE,57,2.0,6.0,75,-99.99,,,0.00,1-wire,2013-03-01 03:42:00,
2013-02-28 21:47:00,28.1,21.4,30.10,ENE,57,1.0,3.0,76,-99.99,,,0.00,1-wire,2013-03-01 03:47:00,
2013-02-28 21:52:00,28.1,21.7,30.10,NE,51,2.0,6.0,77,-99.99,,,0.00,1-wire,2013-03-01 03:52:00,
2013-02-28 21:57:00,27.8,20.9,30.10,NE,51,1.0,3.0,75,-99.99,,,0.00,1-wire,2013-03-01 03:57:00,
2013-02-28 22:02:00,27.6,20.9,30.10,NE,51,3.0,8.0,75,-99.99,,,0.00,1-wire,2013-03-01 04:02:00,
2013-02-28 22:07:00,27.5,20.7,30.10,NE,55,1.0,6.0,75,-99.99,,,0.00,1-wire,2013-03-01 04:07:00,
2013-02-28 22:12:00,27.3,20.4,30.10,NE,55,3.0,6.0,75,-99.99,,,0.00,1-wire,2013-03-01 04:12:00,
2013-02-28 22:17:00,27.4,20.8,30.10,NE,55,1.0,3.0,76,-99.99,,,0.00,1-wire,2013-03-01 04:17:00,
2013-02-28 22:22:00,27.3,20.8,30.10,ENE,60,2.0,6.0,76,-99.99,,,0.00,1-wire,2013-03-01 04:22:00,
2013-02-28 22:27:00,27.1,20.8,30.10,ENE,60,0.0,3.0,77,-99.99,,,0.00,1-wire,2013-03-01 04:27:00,
2013-02-28 22:32:00,26.9,20.9,30.11,ENE,60,1.0,6.0,78,-99.99,,,0.00,1-wire,2013-03-01 04:32:00,
2013-02-28 22:37:00,26.6,21.1,30.11,ENE,60,3.0,6.0,79,-99.99,,,0.00,1-wire,2013-03-01 04:37:00,
2013-02-28 22:42:00,26.4,21.0,30.11,ENE,60,2.0,8.0,80,-99.99,,,0.00,1-wire,2013-03-01 04:42:00,
2013-02-28 22:47:00,26.0,20.5,30.11,ENE,60,2.0,6.0,79,-99.99,,,0.00,1-wire,2013-03-01 04:47:00,
2013-02-28 22:52:00,26.0,20.5,30.11,ENE,64,2.0,6.0,79,-99.99,,,0.00,1-wire,2013-03-01 04:52:00,
2013-02-28 22:57:00,26.3,20.9,30.11,ENE,64,0.0,3.0,80,-99.99,,,0.00,1-wire,2013-03-01 04:57:00,
2013-02-28 23:00:00,26.0,20.5,30.11,ENE,64,1.0,3.0,79,-99.99,,,0.00,1-wire,2013-03-01 05:00:00,
2013-02-28 23:05:00,25.7,20.0,30.11,ENE,64,1.0,6.0,79,-99.99,,,0.00,1-wire,2013-03-01 05:05:00,
2013-02-28 23:09:00,25.4,19.8,30.11,ENE,65,4.0,9.0,79,-99.99,,,0.00,1-wire,2013-03-01 05:09:00,
2013-02-28 23:10:00,25.3,19.7,30.11,ENE,65,3.0,6.0,79,-99.99,,,0.00,1-wire,2013-03-01 05:10:00,
2013-02-28 23:15:00,25.6,19.9,30.11,ENE,65,0.0,3.0,79,-99.99,,,0.00,1-wire,2013-03-01 05:15:00,
2013-02-28 23:21:00,25.4,19.7,30.11,ENE,72,1.0,3.0,79,-99.99,,,0.00,1-wire,2013-03-01 05:21:00,
2013-02-28 23:26:00,25.0,19.4,30.11,ENE,72,2.0,6.0,79,-99.99,,,0.00,1-wire,2013-03-01 05:26:00,
2013-02-28 23:31:00,25.1,19.5,30.12,ENE,72,2.0,6.0,79,-99.99,,,0.00,1-wire,2013-03-01 05:31:00,
2013-02-28 23:36:00,25.1,19.3,30.11,ENE,68,3.0,6.0,78,-99.99,,,0.00,1-wire,2013-03-01 05:36:00,
2013-02-28 23:41:00,25.1,19.3,30.11,ENE,68,1.0,6.0,78,-99.99,,,0.00,1-wire,2013-03-01 05:41:00,
2013-02-28 23:47:00,24.7,18.7,30.11,ENE,68,2.0,6.0,78,-99.99,,,0.00,1-wire,2013-03-01 05:47:00,
2013-02-28 23:52:00,24.7,18.9,30.12,ENE,63,3.0,6.0,78,-99.99,,,0.00,1-wire,2013-03-01 05:52:00,
2013-02-28 23:58:00,24.9,19.1,30.12,ENE,63,1.0,3.0,78,-99.99,,,0.00,1-wire,2013-03-01 05:58:00,